Koyuk Alfred Adams Airport

About
Name: Koyuk Alfred Adams Airport
Identifier:  KKA/PAKK
Serves:  Koyuk, Alaska
Owner:  State of Alaska DOT&PF - Northern Region
Public/Private:  Public
Local Time:  25. Aug 01:16 AKDT
Description: Koyuk Alfred Adams Airport is a state-owned public-use airport located in Koyuk, a city in the Nome Census Area of the U.S. state of Alaska.
Source: Wikipedia
Location
Runways
Identifier Length (m/ft) Surface
1/19 3,000/3,000 Gravel
Flights per Day
1 flights
Distance: 150km (93mi)
Punctuality
20% (1 flights per day delayed)
Delay Average: 50 minutes
Current Weather
 9 C (Humidity: 87%)
  0kt (0km/h / 0mph) from 0°
  Broken clouds at 8,000 feet (2,438 meter)
  16km (10 mi.)
 METAR PAKK 250856Z AUTO 00000KT 10SM BKN080 09/07 A2980 RMK AO2 SLP105 T00940067 401440044 53002

Current Flights

Departures
Number Departure To Airline
Arrivals
Number Arrival From Airline
 8E420 17:50 +93  Shaktoolik Bering Air

Current Delays

Departures
N/A
Arrivals
N/A

Destinations

Top Destinations
Airport Flights
per week
Seats
per week
  Nome (OME) 1 - 0 0
  Shaktoolik (SKK) 0 - 0 0
  Unalakleet (UNK) 0 - 0 0

Airlines & Planes

Top Airlines
Airline Flights
per Day
Seats
per Day
Bering Air 0 -
Top Plane Types
Model Flights Seats
Piper PA-31-350 0.1/day - 0
Cessna C208 0.1/day - 0
Beech B200 Super King Air 0.0/day - 0